Time;durP1;ratioP1;P1;durP2;ratioP2;P2;SDS_P1;SDS_P2;PMS_P1;PMS_P2;Temp;Humidity;BMP_temperature;BMP_pressure;BME280_temperature;BME280_humidity;BME280_pressure;Samples;Min_cycle;Max_cycle;Signal;HPM_P1;HPM_P2
2023/05/22 00:02:58;;;;;;;5.57;5.03;;;;;;;21.91;44.09;94825.47;6113396;28;109166;-70
2023/05/22 00:06:01;;;;;;;5.60;5.10;;;;;;;21.93;44.32;94828.59;6105038;28;110184;-71
2023/05/22 00:09:04;;;;;;;4.80;4.40;;;;;;;21.92;44.16;94824.34;6112885;28;109089;-71
2023/05/22 00:12:08;;;;;;;5.40;4.87;;;;;;;21.92;44.56;94818.25;6114213;28;111583;-69
2023/05/22 00:15:13;;;;;;;5.97;5.37;;;;;;;21.90;44.37;94815.91;6115076;28;109424;-70
2023/05/22 00:18:16;;;;;;;5.00;4.60;;;;;;;21.92;44.06;94816.38;6104051;28;109495;-69
2023/05/22 00:21:19;;;;;;;5.53;5.03;;;;;;;21.94;44.08;94808.84;6115394;28;109626;-70
2023/05/22 00:24:23;;;;;;;5.23;4.83;;;;;;;21.93;43.85;94807.28;6114665;28;109094;-69
2023/05/22 00:27:26;;;;;;;5.40;4.90;;;;;;;21.92;43.83;94811.03;6114695;28;109175;-70
2023/05/22 00:30:32;;;;;;;5.27;4.77;;;;;;;21.90;44.03;94813.22;6103901;28;108840;-70
2023/05/22 00:33:35;;;;;;;5.50;4.50;;;;;;;21.89;43.90;94814.31;6114443;28;109534;-70
2023/05/22 00:36:38;;;;;;;5.30;4.90;;;;;;;21.87;44.27;94805.06;6114457;28;109069;-70
2023/05/22 00:39:41;;;;;;;4.87;4.47;;;;;;;21.86;44.27;94809.63;6108736;28;110225;-71
2023/05/22 00:42:47;;;;;;;5.10;4.60;;;;;;;21.87;44.46;94816.53;6109460;28;108899;-71
2023/05/22 00:45:52;;;;;;;4.80;4.40;;;;;;;21.89;43.89;94813.53;6114412;28;110901;-70
2023/05/22 00:48:56;;;;;;;5.27;4.87;;;;;;;21.85;44.18;94810.72;6114568;28;109089;-70
2023/05/22 00:51:59;;;;;;;5.33;4.93;;;;;;;21.85;44.16;94807.28;6104277;28;108814;-71
2023/05/22 00:55:03;;;;;;;5.43;4.93;;;;;;;21.87;44.39;94816.53;6114322;28;109397;-70
2023/05/22 00:58:10;;;;;;;4.90;4.50;;;;;;;21.86;43.93;94811.50;6114103;28;109114;-70
2023/05/22 01:01:15;;;;;;;5.50;5.10;;;;;;;21.85;44.09;94816.03;6113515;28;110296;-70
2023/05/22 01:04:18;;;;;;;6.47;5.17;;;;;;;21.83;44.03;94807.56;6104419;28;111187;-69
2023/05/22 01:07:22;;;;;;;6.00;5.40;;;;;;;21.85;44.35;94809.94;6113657;28;109144;-69
2023/05/22 01:10:26;;;;;;;5.20;4.70;;;;;;;21.84;44.11;94808.34;6114679;28;108828;-71
2023/05/22 01:13:42;;;;;;;8.30;4.67;;;;;;;21.86;44.08;94816.84;6116692;28;108866;-71
2023/05/22 01:16:53;;;;;;;5.50;4.40;;;;;;;21.82;43.94;94808.66;6107620;28;109571;-71
2023/05/22 01:20:09;;;;;;;5.60;4.83;;;;;;;21.83;44.37;94804.09;6113200;28;108879;-71
2023/05/22 01:23:47;;;;;;;5.20;4.80;;;;;;;21.78;44.13;94797.81;6114111;28;109009;-70
2023/05/22 01:27:24;;;;;;;4.90;4.40;;;;;;;21.78;43.93;94800.47;6092766;28;109275;-70
2023/05/22 01:30:47;;;;;;;4.83;4.53;;;;;;;21.82;43.96;94800.66;6090178;28;109086;-72
2023/05/22 01:33:52;;;;;;;4.90;4.60;;;;;;;21.80;44.60;94802.81;6088609;28;109682;-70
2023/05/22 01:36:57;;;;;;;5.50;4.40;;;;;;;21.78;44.04;94792.47;6097748;28;109267;-71
2023/05/22 01:40:01;;;;;;;5.00;4.60;;;;;;;21.81;44.00;94791.06;6113353;28;109106;-72
2023/05/22 01:43:04;;;;;;;4.80;4.40;;;;;;;21.80;44.15;94794.84;6113757;28;108806;-72
2023/05/22 01:46:09;;;;;;;6.60;5.33;;;;;;;21.80;43.95;94797.50;6113504;28;109094;-72
2023/05/22 01:49:12;;;;;;;7.40;4.93;;;;;;;21.78;44.08;94800.47;6102959;28;110947;-72
2023/05/22 01:52:25;;;;;;;5.53;4.77;;;;;;;21.74;44.27;94790.75;6113692;28;110255;-71
2023/05/22 01:55:33;;;;;;;5.17;4.67;;;;;;;21.78;44.02;94797.81;6113520;28;108980;-72
2023/05/22 01:58:43;;;;;;;6.00;5.20;;;;;;;21.78;44.26;94797.03;6113123;28;109063;-70
2023/05/22 02:01:51;;;;;;;5.00;4.30;;;;;;;21.77;44.44;94792.78;6105118;28;109883;-70
2023/05/22 02:04:58;;;;;;;5.27;4.40;;;;;;;21.77;43.94;94792.78;6111864;28;109341;-70
2023/05/22 02:08:03;;;;;;;5.20;4.70;;;;;;;21.76;43.90;94784.00;6113376;28;109785;-70
2023/05/22 02:11:08;;;;;;;4.90;4.50;;;;;;;21.73;44.02;94784.63;6103076;28;110256;-71
2023/05/22 02:14:11;;;;;;;6.20;4.40;;;;;;;21.73;44.01;94794.50;6112879;28;110133;-71
2023/05/22 02:17:17;;;;;;;4.43;4.03;;;;;;;21.72;44.47;94790.28;6113533;28;110315;-70
2023/05/22 02:20:20;;;;;;;5.83;4.53;;;;;;;21.71;44.18;94791.38;6114602;28;109285;-69
2023/05/22 02:23:24;;;;;;;5.27;4.77;;;;;;;21.73;44.53;94799.84;6101066;28;109339;-69
2023/05/22 02:26:27;;;;;;;5.13;4.73;;;;;;;21.72;44.16;94791.06;6121911;28;109243;-69
2023/05/22 02:29:31;;;;;;;5.30;4.80;;;;;;;21.71;44.02;94794.03;6116792;28;109087;-69
2023/05/22 02:32:36;;;;;;;5.60;5.10;;;;;;;21.69;44.38;94796.22;6112811;28;108916;-70
2023/05/22 02:35:39;;;;;;;7.30;5.07;;;;;;;21.70;44.09;94800.47;6100660;28;110760;-69
2023/05/22 02:38:42;;;;;;;4.70;4.30;;;;;;;21.70;44.37;94792.47;6123240;28;112171;-69
2023/05/22 02:41:45;;;;;;;8.37;5.30;;;;;;;21.68;44.58;94792.00;6112047;28;111948;-70
2023/05/22 02:44:48;;;;;;;10.40;6.20;;;;;;;21.58;44.77;94789.59;6107424;28;109015;-71
2023/05/22 02:47:53;;;;;;;16.90;6.43;;;;;;;21.65;45.29;94792.59;6108015;28;110072;-69
2023/05/22 02:50:56;;;;;;;10.50;5.73;;;;;;;21.63;44.30;94792.13;6112121;28;109235;-69
2023/05/22 02:53:59;;;;;;;7.40;6.17;;;;;;;21.67;44.10;94791.19;6112622;28;108846;-70
2023/05/22 02:57:03;;;;;;;16.07;6.60;;;;;;;21.58;44.51;94784.28;6098734;28;109413;-69
2023/05/22 03:00:10;;;;;;;10.10;6.30;;;;;;;21.60;44.31;94790.06;6117463;28;109101;-69
2023/05/22 03:03:16;;;;;;;29.47;9.87;;;;;;;21.62;44.68;94794.00;6111289;28;110804;-70
2023/05/22 03:06:20;;;;;;;21.13;6.97;;;;;;;21.59;44.40;94785.84;6116061;28;110039;-69
2023/05/22 03:09:23;;;;;;;12.30;6.13;;;;;;;21.64;43.86;94783.03;6093919;28;111131;-69
2023/05/22 03:12:26;;;;;;;15.33;7.70;;;;;;;21.66;44.77;94786.94;6105653;28;109068;-70
2023/05/22 03:15:29;;;;;;;24.23;21.80;;;;;;;21.67;44.07;94791.19;6115548;28;109212;-69
2023/05/22 03:18:35;;;;;;;39.47;35.87;;;;;;;21.68;44.47;94797.31;6108950;28;109006;-71
2023/05/22 03:21:39;;;;;;;29.90;27.30;;;;;;;21.69;44.11;94790.91;6112831;28;110587;-69
2023/05/22 03:24:42;;;;;;;39.77;36.17;;;;;;;21.70;44.21;94797.78;6118301;28;109584;-69
2023/05/22 03:27:46;;;;;;;53.20;47.67;;;;;;;21.69;44.92;94794.34;6117297;28;110146;-69
2023/05/22 03:30:49;;;;;;;32.73;29.67;;;;;;;21.69;44.19;94790.91;6105735;28;109687;-69
2023/05/22 03:33:53;;;;;;;23.73;21.33;;;;;;;21.70;44.33;94797.78;6111017;28;109207;-70
2023/05/22 03:36:57;;;;;;;50.00;45.33;;;;;;;21.67;44.73;94788.53;6109683;28;109987;-70
2023/05/22 03:40:00;;;;;;;31.60;28.23;;;;;;;21.66;44.73;94792.28;6115259;28;109564;-70
2023/05/22 03:43:03;;;;;;;33.07;27.23;;;;;;;21.66;44.33;94796.81;6104187;28;109702;-70
2023/05/22 03:46:06;;;;;;;19.10;16.00;;;;;;;21.64;44.31;94796.34;6125731;28;109054;-71
2023/05/22 03:49:11;;;;;;;24.43;21.07;;;;;;;21.63;44.97;94797.44;6115240;28;109441;-71
2023/05/22 03:52:14;;;;;;;23.13;17.47;;;;;;;21.64;44.92;94797.13;6115105;28;109318;-71
2023/05/22 03:55:17;;;;;;;18.93;12.60;;;;;;;21.63;44.17;94797.44;6106115;28;111257;-71
2023/05/22 03:58:20;;;;;;;19.43;12.10;;;;;;;21.64;43.86;94799.78;6115518;28;109684;-71
2023/05/22 04:01:24;;;;;;;28.17;13.10;;;;;;;21.57;45.29;94804.78;6116677;28;109425;-70
2023/05/22 04:04:29;;;;;;;18.53;10.10;;;;;;;21.58;44.64;94806.38;6108173;28;112061;-68
2023/05/22 04:07:32;;;;;;;12.93;8.67;;;;;;;21.61;45.81;94804.97;6110654;28;108887;-70
2023/05/22 04:10:37;;;;;;;18.40;8.30;;;;;;;21.65;45.04;94805.91;6115869;28;110030;-70
2023/05/22 04:13:40;;;;;;;19.90;7.97;;;;;;;21.72;46.74;94803.59;6114704;28;110092;-70
2023/05/22 04:16:44;;;;;;;25.63;9.40;;;;;;;21.73;45.50;94802.50;6105088;28;110460;-68
2023/05/22 04:19:49;;;;;;;36.67;9.03;;;;;;;21.79;45.65;94806.56;6112305;28;109208;-69
2023/05/22 04:22:53;;;;;;;178.50;23.23;;;;;;;21.81;46.16;94804.38;6110641;28;109018;-70
2023/05/22 04:25:57;;;;;;;383.40;29.50;;;;;;;21.85;45.72;94804.59;6116140;28;109075;-69
2023/05/22 04:29:00;;;;;;;359.90;32.87;;;;;;;21.89;45.41;94809.00;6097706;28;110168;-69
2023/05/22 04:32:05;;;;;;;303.50;29.03;;;;;;;21.90;45.39;94810.56;6111517;28;109226;-70
2023/05/22 04:35:11;;;;;;;203.00;21.37;;;;;;;21.95;45.45;94809.63;6113722;28;109098;-69
2023/05/22 04:38:14;;;;;;;166.93;20.73;;;;;;;21.90;45.33;94810.56;6119015;28;109109;-69
2023/05/22 04:41:18;;;;;;;174.97;18.97;;;;;;;21.93;45.62;94807.28;6108414;28;108821;-65
2023/05/22 04:44:24;;;;;;;51.93;10.33;;;;;;;21.82;44.67;94806.00;6114834;28;109453;-67
2023/05/22 04:47:27;;;;;;;79.37;14.03;;;;;;;21.80;44.81;94808.16;6114632;28;109021;-68
2023/05/22 04:50:33;;;;;;;138.30;18.50;;;;;;;21.75;45.04;94816.28;6102886;28;109023;-64
2023/05/22 04:53:37;;;;;;;136.95;19.60;;;;;;;21.65;45.32;94808.56;6112745;28;109087;-63
2023/05/22 04:56:40;;;;;;;85.30;14.93;;;;;;;21.51;45.40;94812.16;6099915;28;109179;-65
2023/05/22 04:59:44;;;;;;;113.30;19.10;;;;;;;21.49;45.71;94808.97;6089253;28;109067;-65
2023/05/22 05:02:48;;;;;;;51.03;11.68;;;;;;;21.48;45.30;94811.94;6078006;28;108773;-65
2023/05/22 05:05:52;;;;;;;82.05;15.43;;;;;;;21.50;46.06;94810.53;6088863;28;109171;-65
2023/05/22 05:08:56;;;;;;;75.30;13.83;;;;;;;21.48;46.69;94806.63;6088153;28;109603;-60
2023/05/22 05:11:59;;;;;;;37.53;9.05;;;;;;;21.35;45.49;94821.63;6118579;28;109227;-61
2023/05/22 05:15:02;;;;;;;14.90;8.03;;;;;;;21.38;44.89;94818.34;6106644;28;110254;-60
2023/05/22 05:18:05;;;;;;;19.40;6.60;;;;;;;21.43;44.61;94823.53;6114281;28;109446;-60
2023/05/22 05:21:10;;;;;;;19.47;9.30;;;;;;;21.45;44.18;94820.56;6114106;28;109100;-60
2023/05/22 05:24:13;;;;;;;16.00;8.33;;;;;;;21.44;44.16;94817.09;6103962;28;109043;-60
2023/05/22 05:27:17;;;;;;;16.57;7.53;;;;;;;21.42;44.18;94808.66;6113649;28;109135;-66
2023/05/22 05:30:20;;;;;;;26.73;8.17;;;;;;;21.48;44.67;94818.06;6114162;28;108959;-67
2023/05/22 05:33:23;;;;;;;22.77;7.37;;;;;;;21.63;44.75;94826.72;6113962;28;109146;-62
2023/05/22 05:36:29;;;;;;;25.03;8.60;;;;;;;21.63;45.04;94824.84;6103096;28;109337;-62
2023/05/22 05:39:32;;;;;;;22.57;7.67;;;;;;;21.66;44.57;94821.56;6113294;28;109143;-61
2023/05/22 05:42:35;;;;;;;16.13;7.33;;;;;;;21.68;43.91;94821.28;6113774;28;109123;-61
2023/05/22 05:45:38;;;;;;;15.77;6.77;;;;;;;21.71;43.84;94826.00;6102120;28;108975;-60
2023/05/22 05:48:42;;;;;;;11.83;6.57;;;;;;;21.74;43.77;94826.16;6113158;28;109069;-61
2023/05/22 05:51:47;;;;;;;9.47;6.07;;;;;;;21.76;43.98;94828.50;6117257;28;109068;-61
2023/05/22 05:54:50;;;;;;;9.07;6.20;;;;;;;21.76;43.64;94820.53;6121096;28;109116;-61
2023/05/22 05:57:54;;;;;;;10.50;5.67;;;;;;;21.77;43.99;94824.75;6098752;28;109652;-62
2023/05/22 06:00:57;;;;;;;10.37;6.20;;;;;;;21.82;44.21;94827.28;6132137;28;109077;-61
2023/05/22 06:04:02;;;;;;;8.27;6.03;;;;;;;21.86;44.21;94827.50;6137566;28;108715;-62
2023/05/22 06:07:06;;;;;;;7.90;5.17;;;;;;;21.91;44.06;94820.13;6137646;28;109884;-62
2023/05/22 06:10:11;;;;;;;8.40;5.63;;;;;;;21.94;43.60;94824.03;6125523;28;109421;-62
2023/05/22 06:13:14;;;;;;;7.57;5.03;;;;;;;21.97;43.39;94824.22;6137309;28;109349;-62
2023/05/22 06:16:18;;;;;;;27.60;6.67;;;;;;;22.03;43.40;94823.00;6137211;28;109067;-62
2023/05/22 06:19:21;;;;;;;15.03;5.73;;;;;;;22.14;43.62;94828.00;6137265;28;109041;-65
2023/05/22 06:22:26;;;;;;;19.90;6.10;;;;;;;22.17;43.41;94833.50;6126655;28;109254;-67
2023/05/22 06:25:29;;;;;;;16.77;6.43;;;;;;;22.21;44.21;94831.00;6136840;28;108936;-65
2023/05/22 06:28:32;;;;;;;14.83;6.50;;;;;;;22.25;43.89;94829.28;6136823;28;109307;-66
2023/05/22 06:31:37;;;;;;;14.37;6.30;;;;;;;22.35;44.55;94839.66;6134553;28;109070;-70
2023/05/22 06:34:40;;;;;;;12.77;6.03;;;;;;;22.36;44.16;94830.56;6129282;28;109028;-66
2023/05/22 06:37:45;;;;;;;13.50;5.30;;;;;;;22.38;43.78;94828.38;6109608;28;109105;-66
2023/05/22 06:40:48;;;;;;;12.40;5.70;;;;;;;22.46;44.63;94824.91;6097994;28;109040;-66
2023/05/22 06:43:52;;;;;;;12.07;5.80;;;;;;;22.53;44.44;94824.47;6096066;28;109138;-66
2023/05/22 06:46:55;;;;;;;16.83;6.50;;;;;;;22.61;44.58;94821.81;6138221;28;112391;-64
2023/05/22 06:50:00;;;;;;;12.40;5.80;;;;;;;22.64;45.00;94823.06;6141049;28;109053;-65
2023/05/22 06:53:05;;;;;;;16.53;6.53;;;;;;;22.67;45.28;94831.22;6129037;28;109031;-65
2023/05/22 06:56:08;;;;;;;12.20;5.97;;;;;;;22.63;45.83;94830.28;6097129;28;109567;-66
2023/05/22 06:59:11;;;;;;;10.67;5.73;;;;;;;22.62;45.69;94827.94;6116518;28;109366;-65
2023/05/22 07:02:15;;;;;;;28.57;8.20;;;;;;;22.60;45.63;94830.13;6116881;28;109369;-65
2023/05/22 07:05:18;;;;;;;13.80;6.50;;;;;;;22.60;45.61;94832.78;6116769;28;109062;-65
2023/05/22 07:08:22;;;;;;;10.17;6.70;;;;;;;22.60;46.22;94835.47;6106400;28;109037;-66
2023/05/22 07:11:25;;;;;;;14.13;6.30;;;;;;;22.60;46.59;94828.25;6109001;28;111181;-67
2023/05/22 07:14:29;;;;;;;11.10;6.77;;;;;;;22.64;46.50;94831.06;6111756;28;109083;-66
2023/05/22 07:17:32;;;;;;;9.93;5.73;;;;;;;22.65;46.83;94828.06;6111008;28;109354;-66
2023/05/22 07:20:35;;;;;;;10.70;5.70;;;;;;;22.69;46.52;94830.94;6110830;28;109001;-66
2023/05/22 07:23:40;;;;;;;6.87;5.30;;;;;;;22.68;46.04;94824.00;6116038;28;109126;-66
2023/05/22 07:26:45;;;;;;;10.97;5.33;;;;;;;22.61;45.75;94826.38;6121543;28;109041;-66
2023/05/22 07:29:48;;;;;;;11.27;5.50;;;;;;;22.61;45.90;94821.03;6129688;28;109679;-66
2023/05/22 07:32:51;;;;;;;25.20;6.47;;;;;;;22.60;45.23;94833.56;6140198;28;109513;-65
2023/05/22 07:35:55;;;;;;;15.07;6.30;;;;;;;22.59;45.81;94824.00;6139610;28;109035;-65
2023/05/22 07:38:59;;;;;;;16.80;5.93;;;;;;;22.60;45.46;94824.78;6139779;28;109041;-66
2023/05/22 07:42:03;;;;;;;17.40;6.20;;;;;;;22.58;45.54;94825.09;6128661;28;109096;-66
2023/05/22 07:45:07;;;;;;;15.83;6.30;;;;;;;22.57;45.22;94825.44;6140036;28;109071;-65
2023/05/22 07:48:10;;;;;;;15.13;6.20;;;;;;;22.55;45.63;94828.38;6139724;28;109203;-65
2023/05/22 07:51:14;;;;;;;16.20;5.17;;;;;;;22.53;45.48;94827.91;6110126;28;109111;-65
2023/05/22 07:54:18;;;;;;;13.23;5.70;;;;;;;22.53;45.45;94819.13;6085081;28;109872;-65
2023/05/22 07:57:21;;;;;;;13.63;5.73;;;;;;;22.52;44.79;94815.69;6092244;28;111629;-65
2023/05/22 08:00:25;;;;;;;11.70;6.07;;;;;;;22.53;45.04;94819.91;6091398;28;109219;-65
2023/05/22 08:03:28;;;;;;;12.13;6.30;;;;;;;22.53;45.05;94819.13;6081473;28;109597;-65
2023/05/22 08:06:33;;;;;;;10.67;5.57;;;;;;;22.55;45.54;94816.94;6112992;28;109047;-65
2023/05/22 08:09:38;;;;;;;9.20;5.47;;;;;;;22.56;45.01;94818.50;6139405;28;109106;-65
2023/05/22 08:12:42;;;;;;;13.27;5.90;;;;;;;22.56;45.57;94819.28;6091277;28;109684;-66
2023/05/22 08:15:45;;;;;;;16.13;6.57;;;;;;;22.55;45.19;94819.59;6080080;28;109165;-65
2023/05/22 08:18:48;;;;;;;15.83;5.80;;;;;;;22.40;45.60;94816.28;6096223;28;112059;-63
2023/05/22 08:21:56;;;;;;;12.93;5.43;;;;;;;22.55;45.77;94816.94;6091015;28;109103;-66
2023/05/22 08:25:01;;;;;;;13.67;4.77;;;;;;;22.64;44.97;94817.72;6091677;28;111017;-65
2023/05/22 08:28:05;;;;;;;29.25;8.48;;;;;;;22.61;45.32;94816.47;6080015;28;111289;-71
2023/05/22 08:31:08;;;;;;;7.80;4.60;;;;;;;22.70;45.43;94819.94;6094335;28;109049;-69
2023/05/22 08:34:11;;;;;;;11.20;5.53;;;;;;;22.76;45.50;94817.09;6114097;28;109020;-71
2023/05/22 08:37:14;;;;;;;11.33;6.03;;;;;;;22.78;46.00;94812.22;6107901;28;109109;-69
2023/05/22 08:40:20;;;;;;;8.70;4.50;;;;;;;22.76;45.44;94811.78;6107459;28;109576;-72
2023/05/22 08:43:24;;;;;;;13.70;7.20;;;;;;;22.74;45.81;94813.97;6091065;28;109083;-66
2023/05/22 08:46:29;;;;;;;15.50;9.13;;;;;;;22.79;45.55;94811.13;6124601;28;109094;-64
2023/05/22 08:49:33;;;;;;;19.80;9.40;;;;;;;22.87;45.53;94813.81;6105238;28;110034;-65
2023/05/22 08:52:45;;;;;;;22.63;10.10;;;;;;;22.92;45.43;94810.97;6114317;28;109195;-65
2023/05/22 08:55:51;;;;;;;13.20;9.00;;;;;;;22.91;44.94;94812.06;6114274;28;109053;-66
2023/05/22 08:58:55;;;;;;;12.87;7.97;;;;;;;22.95;44.53;94815.66;6114687;28;111850;-66
2023/05/22 09:01:59;;;;;;;14.00;6.53;;;;;;;22.94;43.67;94805.31;6104354;28;110246;-66
2023/05/22 09:05:04;;;;;;;14.23;6.97;;;;;;;23.00;44.19;94812.03;6102914;28;109028;-66
2023/05/22 09:08:08;;;;;;;12.37;6.63;;;;;;;23.05;44.34;94814.56;6121813;28;109359;-66
2023/05/22 09:11:24;;;;;;;12.67;6.27;;;;;;;23.03;44.42;94811.44;6128627;28;109074;-66
2023/05/22 09:14:28;;;;;;;15.17;7.40;;;;;;;23.05;43.68;94803.88;6106748;28;109041;-66
2023/05/22 09:17:31;;;;;;;25.97;8.00;;;;;;;23.07;44.19;94809.69;6114144;28;112100;-66
2023/05/22 09:20:36;;;;;;;11.17;6.33;;;;;;;22.98;44.08;94801.69;6104708;28;109039;-65
2023/05/22 09:23:39;;;;;;;16.37;6.30;;;;;;;22.93;44.00;94801.84;6090966;28;109086;-65
2023/05/22 09:26:45;;;;;;;15.40;6.30;;;;;;;22.93;43.44;94793.84;6089744;28;108940;-66
2023/05/22 09:29:49;;;;;;;11.57;5.80;;;;;;;22.89;43.37;94798.25;6110725;28;109091;-65
2023/05/22 09:32:53;;;;;;;28.47;8.00;;;;;;;22.83;42.48;94802.16;6115142;28;111831;-72
2023/05/22 09:35:57;;;;;;;11.87;4.17;;;;;;;22.59;40.51;94801.88;6103155;28;109489;-74
2023/05/22 09:39:01;;;;;;;31.63;10.30;;;;;;;22.69;41.83;94801.59;6113760;28;109378;-74
2023/05/22 09:42:08;;;;;;;55.40;12.60;;;;;;;22.66;41.85;94797.63;6113513;28;109281;-75
2023/05/22 09:45:12;;;;;;;43.40;14.10;;;;;;;22.67;42.59;94796.53;6102525;28;111176;-76
2023/05/22 09:48:17;;;;;;;43.17;16.13;;;;;;;22.66;43.36;94808.31;6106943;28;110124;-75
2023/05/22 09:51:22;;;;;;;60.93;20.70;;;;;;;22.62;43.66;94807.38;6113788;28;111001;-76
2023/05/22 09:54:28;;;;;;;49.77;21.37;;;;;;;22.60;43.53;94812.25;6113746;28;109572;-75
2023/05/22 09:57:41;;;;;;;72.50;27.40;;;;;;;22.56;44.50;94805.16;6104950;28;110933;-66
2023/05/22 10:00:45;;;;;;;53.27;25.07;;;;;;;22.64;43.98;94805.16;6137231;28;109055;-66
2023/05/22 10:03:52;;;;;;;62.93;25.90;;;;;;;22.70;44.49;94795.16;6136946;28;109366;-66
2023/05/22 10:06:57;;;;;;;54.40;24.40;;;;;;;22.74;44.04;94792.63;6137051;28;109077;-67
2023/05/22 10:10:05;;;;;;;156.17;37.00;;;;;;;22.75;44.02;94799.53;6118265;28;108951;-67
2023/05/22 10:13:11;;;;;;;179.17;44.33;;;;;;;22.76;44.38;94795.75;6113680;28;110309;-66
2023/05/22 10:16:16;;;;;;;96.60;31.53;;;;;;;22.77;44.10;94792.00;6124829;28;108890;-67
2023/05/22 10:19:19;;;;;;;107.40;35.43;;;;;;;22.77;44.25;94808.00;6132180;28;109085;-67
2023/05/22 10:22:24;;;;;;;126.10;37.40;;;;;;;22.73;44.12;94802.50;6123247;28;110363;-67
2023/05/22 10:25:29;;;;;;;101.83;33.77;;;;;;;22.74;44.11;94824.63;6105139;28;110136;-67
2023/05/22 10:28:40;;;;;;;89.97;30.80;;;;;;;22.73;44.20;94823.84;6098320;28;109009;-67
2023/05/22 10:31:50;;;;;;;88.23;26.90;;;;;;;22.74;43.75;94829.97;6103963;28;110357;-66
2023/05/22 10:35:02;;;;;;;75.43;24.93;;;;;;;22.73;43.87;94833.75;6113751;28;109135;-66
2023/05/22 10:38:24;;;;;;;64.27;21.20;;;;;;;22.72;44.17;94829.50;6116914;28;109158;-67
2023/05/22 10:41:29;;;;;;;54.03;18.77;;;;;;;22.75;44.25;94820.88;6113543;28;109098;-66
2023/05/22 10:44:35;;;;;;;44.17;16.60;;;;;;;22.68;44.14;94806.13;6102088;28;109342;-67
2023/05/22 10:47:38;;;;;;;31.17;14.27;;;;;;;22.75;45.42;94820.88;6112686;28;109076;-65
2023/05/22 10:50:52;;;;;;;31.37;13.40;;;;;;;22.74;45.58;94814.75;6104885;28;108848;-66
2023/05/22 10:54:04;;;;;;;31.27;12.37;;;;;;;22.69;45.79;94807.69;6102507;28;109185;-65
2023/05/22 10:57:14;;;;;;;31.30;12.00;;;;;;;22.67;46.25;94798.41;6113495;28;109324;-66
2023/05/22 11:00:24;;;;;;;24.67;13.13;;;;;;;22.73;46.34;94796.41;6112316;28;109093;-66
2023/05/22 11:03:27;;;;;;;25.73;11.80;;;;;;;22.76;47.43;94790.44;6112716;28;109099;-65
2023/05/22 11:06:35;;;;;;;20.50;10.97;;;;;;;22.79;47.00;94787.13;6101555;28;109929;-65
2023/05/22 11:09:41;;;;;;;22.53;11.80;;;;;;;22.74;47.76;94795.28;6112674;28;108878;-65
2023/05/22 11:12:45;;;;;;;23.73;10.37;;;;;;;22.78;47.82;94810.34;6112325;28;109060;-64
2023/05/22 11:15:50;;;;;;;19.90;10.27;;;;;;;22.75;47.63;94810.97;6109114;28;109070;-64
2023/05/22 11:19:02;;;;;;;17.10;10.40;;;;;;;22.69;47.04;94809.59;6108620;28;109072;-64
2023/05/22 11:22:29;;;;;;;14.13;8.03;;;;;;;22.63;46.83;94829.50;6087872;28;109464;-64
2023/05/22 11:25:35;;;;;;;13.33;5.70;;;;;;;22.53;44.88;94827.91;6121801;28;109074;-66
2023/05/22 11:28:39;;;;;;;12.30;6.50;;;;;;;22.53;45.36;94838.56;6125445;28;109550;-64
2023/05/22 11:31:46;;;;;;;16.10;6.70;;;;;;;22.62;44.98;94842.03;6133607;28;109087;-65
2023/05/22 11:34:50;;;;;;;9.27;5.00;;;;;;;22.63;44.79;94846.28;6099919;28;109467;-64
2023/05/22 11:37:54;;;;;;;7.37;4.90;;;;;;;22.63;44.78;94858.84;6110298;28;109093;-66
2023/05/22 11:40:58;;;;;;;13.97;5.33;;;;;;;22.61;44.50;94869.81;6101731;28;112007;-65
2023/05/22 11:44:02;;;;;;;9.73;4.17;;;;;;;22.59;44.73;94872.00;6093752;28;108863;-65
2023/05/22 11:47:07;;;;;;;6.10;4.40;;;;;;;22.55;44.52;94865.72;6118552;28;109142;-65
2023/05/22 11:50:12;;;;;;;6.53;3.90;;;;;;;22.58;44.51;94870.44;6110531;28;110379;-65
2023/05/22 11:53:19;;;;;;;5.33;3.70;;;;;;;22.56;44.92;94869.94;6131142;28;110155;-65
2023/05/22 11:56:23;;;;;;;12.77;5.40;;;;;;;22.50;44.61;94854.41;6135824;28;109087;-65
2023/05/22 11:59:27;;;;;;;12.50;5.17;;;;;;;22.52;44.74;94862.91;6140255;28;110198;-65
2023/05/22 12:02:32;;;;;;;15.70;5.33;;;;;;;22.56;45.23;94864.63;6128896;28;108700;-66
2023/05/22 12:05:35;;;;;;;11.23;4.47;;;;;;;22.59;45.18;94855.22;6139554;28;109252;-66
2023/05/22 12:08:38;;;;;;;15.20;5.40;;;;;;;22.54;44.81;94842.03;6115143;28;109106;-65
2023/05/22 12:11:47;;;;;;;14.83;4.97;;;;;;;22.58;44.88;94843.78;6115611;28;109059;-66
2023/05/22 12:14:50;;;;;;;13.27;5.20;;;;;;;22.64;44.99;94855.06;6103725;28;109678;-64
2023/05/22 12:17:56;;;;;;;7.40;4.67;;;;;;;22.63;45.00;94851.63;6115100;28;109288;-65
2023/05/22 12:21:00;;;;;;;9.70;4.50;;;;;;;22.64;45.04;94847.06;6115354;28;109048;-64
2023/05/22 12:24:04;;;;;;;8.20;4.17;;;;;;;22.62;45.24;94844.72;6107956;28;109098;-64
2023/05/22 12:27:09;;;;;;;7.67;4.80;;;;;;;22.63;45.33;94848.94;6085225;28;109157;-65
2023/05/22 12:30:14;;;;;;;11.20;4.80;;;;;;;22.65;45.79;94844.09;6090831;28;108850;-65
2023/05/22 12:33:19;;;;;;;12.87;4.33;;;;;;;22.61;45.36;94835.16;6090657;28;109085;-64
2023/05/22 12:36:31;;;;;;;8.10;4.30;;;;;;;22.64;45.28;94839.06;6085299;28;109613;-65
2023/05/22 12:39:34;;;;;;;5.47;4.07;;;;;;;22.69;45.58;94839.72;6114371;28;109380;-65
2023/05/22 12:42:37;;;;;;;8.70;4.47;;;;;;;22.65;45.79;94833.41;6113340;28;109057;-65
2023/05/22 12:45:41;;;;;;;10.40;4.00;;;;;;;22.62;45.84;94826.03;6114966;28;112061;-64
2023/05/22 12:48:45;;;;;;;8.43;4.70;;;;;;;22.68;45.57;94829.31;6103464;28;108981;-65
2023/05/22 12:51:49;;;;;;;6.23;4.07;;;;;;;22.67;45.66;94830.44;6113620;28;109403;-62
2023/05/22 12:54:52;;;;;;;11.30;3.83;;;;;;;22.70;45.99;94813.81;6114615;28;109251;-61
2023/05/22 12:57:55;;;;;;;6.73;4.03;;;;;;;22.70;45.76;94824.50;6134482;28;109173;-62
2023/05/22 13:00:59;;;;;;;6.63;4.43;;;;;;;22.72;46.04;94832.19;6129208;28;110314;-62
2023/05/22 13:04:04;;;;;;;8.03;4.23;;;;;;;22.70;45.57;94830.59;6138795;28;110107;-61
2023/05/22 13:07:07;;;;;;;15.60;5.20;;;;;;;22.72;46.12;94829.50;6126909;28;109028;-61
2023/05/22 13:10:12;;;;;;;15.53;5.10;;;;;;;22.62;45.93;94820.72;6101481;28;109040;-63
2023/05/22 13:13:15;;;;;;;9.63;4.77;;;;;;;22.65;46.53;94817.41;6090561;28;110142;-61
2023/05/22 13:16:20;;;;;;;15.27;4.90;;;;;;;22.65;45.80;94806.75;6091033;28;109378;-61
2023/05/22 13:19:24;;;;;;;11.80;4.63;;;;;;;22.62;46.40;94796.72;6090588;28;109142;-61
2023/05/22 13:22:28;;;;;;;10.60;4.23;;;;;;;22.62;46.17;94788.72;6088124;28;109039;-62
2023/05/22 13:25:31;;;;;;;11.80;4.77;;;;;;;22.62;45.22;94786.03;6090478;28;109043;-60
2023/05/22 13:28:35;;;;;;;9.87;4.30;;;;;;;22.63;45.14;94776.16;6090234;28;109389;-63
2023/05/22 13:31:39;;;;;;;5.57;3.87;;;;;;;22.64;45.08;94775.84;6090180;28;109080;-63
2023/05/22 13:34:43;;;;;;;6.30;3.60;;;;;;;22.63;45.06;94782.28;6078630;28;108974;-62
2023/05/22 13:37:47;;;;;;;4.77;4.17;;;;;;;22.63;44.38;94784.16;6106202;28;109931;-62
2023/05/22 13:40:50;;;;;;;4.40;4.00;;;;;;;22.61;44.32;94783.69;6113886;28;109990;-62
2023/05/22 13:43:54;;;;;;;6.70;4.27;;;;;;;22.60;44.12;94774.91;6109170;28;109141;-62
2023/05/22 13:46:58;;;;;;;5.23;3.73;;;;;;;22.66;43.57;94776.31;6108106;28;109070;-62
2023/05/22 13:50:04;;;;;;;4.17;3.77;;;;;;;22.61;43.65;94763.13;6113527;28;109420;-62
2023/05/22 13:53:07;;;;;;;8.33;3.67;;;;;;;22.65;43.66;94774.72;6112616;28;110074;-62
2023/05/22 13:56:10;;;;;;;5.47;3.60;;;;;;;22.65;43.47;94769.41;6102240;28;109036;-62
2023/05/22 13:59:13;;;;;;;4.60;4.17;;;;;;;22.64;43.73;94757.16;6113386;28;108746;-62
2023/05/22 14:02:19;;;;;;;8.03;4.13;;;;;;;22.66;43.39;94770.97;6113016;28;108952;-65
2023/05/22 14:05:24;;;;;;;10.03;4.70;;;;;;;22.60;43.69;94772.25;6113111;28;109078;-65
2023/05/22 14:08:27;;;;;;;16.47;5.10;;;;;;;22.55;43.64;94761.72;6102546;28;110235;-64
2023/05/22 14:11:30;;;;;;;7.30;4.23;;;;;;;22.59;43.28;94767.22;6104943;28;109232;-65